sensor_id;sensor_type;location;lat;lon;timestamp;P1;durP1;ratioP1;P2;durP2;ratioP2
54679;SDS011;40578;53.178;5.846;2022-09-12T00:00:48;17.83;;;15.98;;
54679;SDS011;40578;53.178;5.846;2022-09-12T00:03:14;18.42;;;16.33;;
54679;SDS011;40578;53.178;5.846;2022-09-12T00:05:41;18.15;;;16.25;;
54679;SDS011;40578;53.178;5.846;2022-09-12T00:08:08;17.73;;;15.90;;
54679;SDS011;40578;53.178;5.846;2022-09-12T00:10:41;18.95;;;16.48;;
54679;SDS011;40578;53.178;5.846;2022-09-12T00:13:08;18.08;;;16.23;;
54679;SDS011;40578;53.178;5.846;2022-09-12T00:15:38;19.45;;;17.45;;
54679;SDS011;40578;53.178;5.846;2022-09-12T00:18:05;18.98;;;16.48;;
54679;SDS011;40578;53.178;5.846;2022-09-12T00:20:33;18.63;;;16.63;;
54679;SDS011;40578;53.178;5.846;2022-09-12T00:22:58;18.67;;;16.50;;
54679;SDS011;40578;53.178;5.846;2022-09-12T00:25:24;22.07;;;18.50;;
54679;SDS011;40578;53.178;5.846;2022-09-12T00:27:51;20.23;;;17.07;;
54679;SDS011;40578;53.178;5.846;2022-09-12T00:30:17;16.65;;;14.93;;
54679;SDS011;40578;53.178;5.846;2022-09-12T00:32:43;13.10;;;11.80;;
54679;SDS011;40578;53.178;5.846;2022-09-12T00:35:08;12.90;;;11.65;;
54679;SDS011;40578;53.178;5.846;2022-09-12T00:37:34;12.10;;;10.90;;
54679;SDS011;40578;53.178;5.846;2022-09-12T00:40:00;11.80;;;10.70;;
54679;SDS011;40578;53.178;5.846;2022-09-12T00:42:26;10.73;;;9.73;;
54679;SDS011;40578;53.178;5.846;2022-09-12T00:44:52;10.17;;;9.27;;
54679;SDS011;40578;53.178;5.846;2022-09-12T00:47:22;10.65;;;9.65;;
54679;SDS011;40578;53.178;5.846;2022-09-12T00:52:40;10.00;;;9.00;;
54679;SDS011;40578;53.178;5.846;2022-09-12T00:55:21;10.85;;;9.75;;
54679;SDS011;40578;53.178;5.846;2022-09-12T01:00:24;10.73;;;9.55;;
54679;SDS011;40578;53.178;5.846;2022-09-12T01:03:13;11.68;;;10.48;;
54679;SDS011;40578;53.178;5.846;2022-09-12T01:08:33;12.23;;;11.02;;
54679;SDS011;40578;53.178;5.846;2022-09-12T01:11:01;13.25;;;11.63;;
54679;SDS011;40578;53.178;5.846;2022-09-12T01:15:53;12.88;;;11.38;;
54679;SDS011;40578;53.178;5.846;2022-09-12T01:18:23;13.40;;;11.93;;
54679;SDS011;40578;53.178;5.846;2022-09-12T01:34:37;15.05;;;13.55;;
54679;SDS011;40578;53.178;5.846;2022-09-12T01:37:20;16.17;;;13.25;;
54679;SDS011;40578;53.178;5.846;2022-09-12T01:47:59;16.43;;;14.83;;
54679;SDS011;40578;53.178;5.846;2022-09-12T01:50:33;19.10;;;17.10;;
54679;SDS011;40578;53.178;5.846;2022-09-12T01:55:45;19.23;;;17.20;;
54679;SDS011;40578;53.178;5.846;2022-09-12T01:58:19;20.83;;;18.63;;
54679;SDS011;40578;53.178;5.846;2022-09-12T02:01:00;19.95;;;17.83;;
54679;SDS011;40578;53.178;5.846;2022-09-12T02:03:46;27.88;;;19.63;;
54679;SDS011;40578;53.178;5.846;2022-09-12T02:06:32;20.15;;;18.05;;
54679;SDS011;40578;53.178;5.846;2022-09-12T02:09:05;19.77;;;17.65;;
54679;SDS011;40578;53.178;5.846;2022-09-12T02:11:37;21.20;;;18.20;;
54679;SDS011;40578;53.178;5.846;2022-09-12T02:14:11;29.05;;;19.00;;
54679;SDS011;40578;53.178;5.846;2022-09-12T02:17:15;21.23;;;18.17;;
54679;SDS011;40578;53.178;5.846;2022-09-12T02:19:58;22.33;;;18.10;;
54679;SDS011;40578;53.178;5.846;2022-09-12T02:22:30;19.90;;;17.80;;
54679;SDS011;40578;53.178;5.846;2022-09-12T02:25:00;18.95;;;16.92;;
54679;SDS011;40578;53.178;5.846;2022-09-12T02:27:35;20.88;;;18.65;;
54679;SDS011;40578;53.178;5.846;2022-09-12T02:30:04;21.40;;;17.70;;
54679;SDS011;40578;53.178;5.846;2022-09-12T02:32:40;18.90;;;16.65;;
54679;SDS011;40578;53.178;5.846;2022-09-12T02:35:22;22.15;;;16.88;;
54679;SDS011;40578;53.178;5.846;2022-09-12T02:40:51;19.80;;;17.70;;
54679;SDS011;40578;53.178;5.846;2022-09-12T02:43:16;21.43;;;17.03;;
54679;SDS011;40578;53.178;5.846;2022-09-12T02:45:42;17.87;;;16.00;;
54679;SDS011;40578;53.178;5.846;2022-09-12T02:50:36;18.77;;;16.67;;
54679;SDS011;40578;53.178;5.846;2022-09-12T02:53:03;20.60;;;17.17;;
54679;SDS011;40578;53.178;5.846;2022-09-12T02:55:30;21.15;;;17.13;;
54679;SDS011;40578;53.178;5.846;2022-09-12T02:57:58;19.10;;;16.92;;
54679;SDS011;40578;53.178;5.846;2022-09-12T03:00:29;21.98;;;17.00;;
54679;SDS011;40578;53.178;5.846;2022-09-12T03:03:19;17.77;;;15.75;;
54679;SDS011;40578;53.178;5.846;2022-09-12T03:05:58;20.42;;;16.85;;
54679;SDS011;40578;53.178;5.846;2022-09-12T03:11:07;18.98;;;16.98;;
54679;SDS011;40578;53.178;5.846;2022-09-12T03:13:52;19.67;;;17.58;;
54679;SDS011;40578;53.178;5.846;2022-09-12T03:27:39;23.63;;;19.33;;
54679;SDS011;40578;53.178;5.846;2022-09-12T03:30:17;24.73;;;20.30;;
54679;SDS011;40578;53.178;5.846;2022-09-12T03:32:52;26.70;;;19.80;;
54679;SDS011;40578;53.178;5.846;2022-09-12T03:35:21;25.75;;;21.52;;
54679;SDS011;40578;53.178;5.846;2022-09-12T03:37:48;26.55;;;21.98;;
54679;SDS011;40578;53.178;5.846;2022-09-12T03:40:14;25.58;;;21.23;;
54679;SDS011;40578;53.178;5.846;2022-09-12T03:42:41;26.60;;;21.23;;
54679;SDS011;40578;53.178;5.846;2022-09-12T03:45:07;28.13;;;22.60;;
54679;SDS011;40578;53.178;5.846;2022-09-12T03:47:34;27.10;;;21.05;;
54679;SDS011;40578;53.178;5.846;2022-09-12T03:50:00;27.60;;;22.33;;
54679;SDS011;40578;53.178;5.846;2022-09-12T03:52:26;28.05;;;23.10;;
54679;SDS011;40578;53.178;5.846;2022-09-12T03:54:51;28.87;;;23.40;;
54679;SDS011;40578;53.178;5.846;2022-09-12T03:57:17;29.27;;;22.87;;
54679;SDS011;40578;53.178;5.846;2022-09-12T03:59:43;30.43;;;23.37;;
54679;SDS011;40578;53.178;5.846;2022-09-12T04:02:09;31.73;;;24.83;;
54679;SDS011;40578;53.178;5.846;2022-09-12T04:04:37;32.78;;;24.95;;
54679;SDS011;40578;53.178;5.846;2022-09-12T04:07:05;34.15;;;25.55;;
54679;SDS011;40578;53.178;5.846;2022-09-12T04:09:30;35.43;;;24.50;;
54679;SDS011;40578;53.178;5.846;2022-09-12T04:11:56;37.10;;;26.90;;
54679;SDS011;40578;53.178;5.846;2022-09-12T04:14:22;35.50;;;26.70;;
54679;SDS011;40578;53.178;5.846;2022-09-12T04:16:47;36.73;;;26.73;;
54679;SDS011;40578;53.178;5.846;2022-09-12T04:19:13;36.20;;;25.80;;
54679;SDS011;40578;53.178;5.846;2022-09-12T04:21:38;38.10;;;26.53;;
54679;SDS011;40578;53.178;5.846;2022-09-12T04:24:04;35.93;;;26.03;;
54679;SDS011;40578;53.178;5.846;2022-09-12T04:26:30;34.97;;;26.97;;
54679;SDS011;40578;53.178;5.846;2022-09-12T04:28:55;38.90;;;27.37;;
54679;SDS011;40578;53.178;5.846;2022-09-12T04:31:22;35.47;;;26.60;;
54679;SDS011;40578;53.178;5.846;2022-09-12T04:33:52;36.88;;;26.17;;
54679;SDS011;40578;53.178;5.846;2022-09-12T04:36:19;37.45;;;27.02;;
54679;SDS011;40578;53.178;5.846;2022-09-12T04:38:46;37.55;;;26.92;;
54679;SDS011;40578;53.178;5.846;2022-09-12T04:41:17;41.85;;;28.15;;
54679;SDS011;40578;53.178;5.846;2022-09-12T04:43:44;41.38;;;27.38;;
54679;SDS011;40578;53.178;5.846;2022-09-12T04:46:11;38.50;;;27.20;;
54679;SDS011;40578;53.178;5.846;2022-09-12T04:48:39;40.33;;;28.17;;
54679;SDS011;40578;53.178;5.846;2022-09-12T04:51:15;41.45;;;28.70;;
54679;SDS011;40578;53.178;5.846;2022-09-12T04:53:46;37.20;;;28.20;;
54679;SDS011;40578;53.178;5.846;2022-09-12T04:56:13;39.25;;;28.58;;
54679;SDS011;40578;53.178;5.846;2022-09-12T04:58:40;43.00;;;29.45;;
54679;SDS011;40578;53.178;5.846;2022-09-12T05:01:13;43.67;;;29.48;;
54679;SDS011;40578;53.178;5.846;2022-09-12T05:03:47;44.95;;;29.83;;
54679;SDS011;40578;53.178;5.846;2022-09-12T05:08:44;42.38;;;28.98;;
54679;SDS011;40578;53.178;5.846;2022-09-12T05:11:11;46.60;;;30.47;;
54679;SDS011;40578;53.178;5.846;2022-09-12T05:13:39;43.90;;;29.67;;
54679;SDS011;40578;53.178;5.846;2022-09-12T05:16:05;44.15;;;30.35;;
54679;SDS011;40578;53.178;5.846;2022-09-12T05:18:32;38.70;;;29.08;;
54679;SDS011;40578;53.178;5.846;2022-09-12T05:21:00;44.45;;;29.98;;
54679;SDS011;40578;53.178;5.846;2022-09-12T05:23:26;43.53;;;30.58;;
54679;SDS011;40578;53.178;5.846;2022-09-12T05:25:53;43.17;;;30.75;;
54679;SDS011;40578;53.178;5.846;2022-09-12T05:28:20;41.63;;;30.95;;
54679;SDS011;40578;53.178;5.846;2022-09-12T05:30:46;42.33;;;31.38;;
54679;SDS011;40578;53.178;5.846;2022-09-12T05:33:13;42.45;;;30.10;;
54679;SDS011;40578;53.178;5.846;2022-09-12T05:35:38;48.10;;;31.63;;
54679;SDS011;40578;53.178;5.846;2022-09-12T05:38:05;44.85;;;32.30;;
54679;SDS011;40578;53.178;5.846;2022-09-12T05:40:31;43.88;;;29.38;;
54679;SDS011;40578;53.178;5.846;2022-09-12T05:42:57;42.67;;;30.65;;
54679;SDS011;40578;53.178;5.846;2022-09-12T05:45:23;45.67;;;30.30;;
54679;SDS011;40578;53.178;5.846;2022-09-12T05:47:51;42.90;;;31.10;;
54679;SDS011;40578;53.178;5.846;2022-09-12T05:50:18;47.17;;;31.75;;
54679;SDS011;40578;53.178;5.846;2022-09-12T05:52:44;45.58;;;31.85;;
54679;SDS011;40578;53.178;5.846;2022-09-12T05:55:10;42.97;;;29.83;;
54679;SDS011;40578;53.178;5.846;2022-09-12T05:57:36;43.27;;;31.03;;
54679;SDS011;40578;53.178;5.846;2022-09-12T06:00:02;43.73;;;31.17;;
54679;SDS011;40578;53.178;5.846;2022-09-12T06:02:30;44.35;;;31.70;;
54679;SDS011;40578;53.178;5.846;2022-09-12T06:04:55;42.77;;;30.00;;
54679;SDS011;40578;53.178;5.846;2022-09-12T06:07:21;44.67;;;30.65;;
54679;SDS011;40578;53.178;5.846;2022-09-12T06:09:47;44.30;;;30.23;;
54679;SDS011;40578;53.178;5.846;2022-09-12T06:12:12;47.60;;;31.20;;
54679;SDS011;40578;53.178;5.846;2022-09-12T06:14:38;43.30;;;30.33;;
54679;SDS011;40578;53.178;5.846;2022-09-12T06:17:07;44.10;;;30.50;;
54679;SDS011;40578;53.178;5.846;2022-09-12T06:19:33;45.33;;;29.67;;
54679;SDS011;40578;53.178;5.846;2022-09-12T06:21:58;41.43;;;29.67;;
54679;SDS011;40578;53.178;5.846;2022-09-12T06:24:24;40.93;;;29.13;;
54679;SDS011;40578;53.178;5.846;2022-09-12T06:26:49;41.43;;;29.67;;
54679;SDS011;40578;53.178;5.846;2022-09-12T06:29:16;42.05;;;30.30;;
54679;SDS011;40578;53.178;5.846;2022-09-12T06:31:43;40.05;;;28.90;;
54679;SDS011;40578;53.178;5.846;2022-09-12T06:34:12;40.78;;;29.33;;
54679;SDS011;40578;53.178;5.846;2022-09-12T06:36:40;39.25;;;27.83;;
54679;SDS011;40578;53.178;5.846;2022-09-12T06:39:11;40.45;;;27.08;;
54679;SDS011;40578;53.178;5.846;2022-09-12T06:41:39;43.05;;;30.23;;
54679;SDS011;40578;53.178;5.846;2022-09-12T06:44:05;43.67;;;30.53;;
54679;SDS011;40578;53.178;5.846;2022-09-12T06:46:31;38.50;;;27.83;;
54679;SDS011;40578;53.178;5.846;2022-09-12T06:48:57;38.90;;;28.30;;
54679;SDS011;40578;53.178;5.846;2022-09-12T06:51:24;44.60;;;30.15;;
54679;SDS011;40578;53.178;5.846;2022-09-12T06:53:52;38.33;;;28.85;;
54679;SDS011;40578;53.178;5.846;2022-09-12T06:56:19;40.85;;;27.90;;
54679;SDS011;40578;53.178;5.846;2022-09-12T06:58:47;41.53;;;30.10;;
54679;SDS011;40578;53.178;5.846;2022-09-12T07:01:18;45.78;;;30.35;;
54679;SDS011;40578;53.178;5.846;2022-09-12T07:03:48;44.50;;;30.17;;
54679;SDS011;40578;53.178;5.846;2022-09-12T07:06:16;42.55;;;27.10;;
54679;SDS011;40578;53.178;5.846;2022-09-12T07:08:43;41.75;;;29.60;;
54679;SDS011;40578;53.178;5.846;2022-09-12T07:11:09;43.77;;;29.67;;
54679;SDS011;40578;53.178;5.846;2022-09-12T07:13:40;46.40;;;31.83;;
54679;SDS011;40578;53.178;5.846;2022-09-12T07:16:07;41.00;;;27.20;;
54679;SDS011;40578;53.178;5.846;2022-09-12T07:18:34;44.65;;;31.30;;
54679;SDS011;40578;53.178;5.846;2022-09-12T07:21:02;42.55;;;28.73;;
54679;SDS011;40578;53.178;5.846;2022-09-12T07:23:29;43.42;;;28.58;;
54679;SDS011;40578;53.178;5.846;2022-09-12T07:25:55;40.75;;;28.55;;
54679;SDS011;40578;53.178;5.846;2022-09-12T07:28:22;43.03;;;30.20;;
54679;SDS011;40578;53.178;5.846;2022-09-12T07:30:48;42.00;;;28.88;;
54679;SDS011;40578;53.178;5.846;2022-09-12T07:33:14;42.20;;;30.23;;
54679;SDS011;40578;53.178;5.846;2022-09-12T07:35:40;48.50;;;31.67;;
54679;SDS011;40578;53.178;5.846;2022-09-12T07:38:06;48.87;;;33.03;;
54679;SDS011;40578;53.178;5.846;2022-09-12T07:40:31;48.60;;;33.47;;
54679;SDS011;40578;53.178;5.846;2022-09-12T07:42:57;43.50;;;31.20;;
54679;SDS011;40578;53.178;5.846;2022-09-12T07:45:22;52.50;;;35.13;;
54679;SDS011;40578;53.178;5.846;2022-09-12T07:47:51;47.60;;;33.53;;
54679;SDS011;40578;53.178;5.846;2022-09-12T07:50:18;45.90;;;31.65;;
54679;SDS011;40578;53.178;5.846;2022-09-12T07:52:43;48.10;;;34.47;;
54679;SDS011;40578;53.178;5.846;2022-09-12T07:55:09;47.13;;;32.90;;
54679;SDS011;40578;53.178;5.846;2022-09-12T07:57:34;47.10;;;33.53;;
54679;SDS011;40578;53.178;5.846;2022-09-12T08:00:00;51.80;;;35.53;;
54679;SDS011;40578;53.178;5.846;2022-09-12T08:02:27;61.17;;;37.08;;
54679;SDS011;40578;53.178;5.846;2022-09-12T08:04:53;51.57;;;35.37;;
54679;SDS011;40578;53.178;5.846;2022-09-12T08:07:18;57.73;;;36.83;;
54679;SDS011;40578;53.178;5.846;2022-09-12T08:09:44;58.23;;;39.43;;
54679;SDS011;40578;53.178;5.846;2022-09-12T08:12:10;54.38;;;37.50;;
54679;SDS011;40578;53.178;5.846;2022-09-12T08:14:36;55.93;;;37.23;;
54679;SDS011;40578;53.178;5.846;2022-09-12T08:17:01;59.10;;;39.40;;
54679;SDS011;40578;53.178;5.846;2022-09-12T08:19:27;55.20;;;38.47;;
54679;SDS011;40578;53.178;5.846;2022-09-12T08:21:52;53.23;;;36.30;;
54679;SDS011;40578;53.178;5.846;2022-09-12T08:24:18;56.63;;;39.80;;
54679;SDS011;40578;53.178;5.846;2022-09-12T08:26:44;51.70;;;36.60;;
54679;SDS011;40578;53.178;5.846;2022-09-12T08:29:10;53.70;;;37.40;;
54679;SDS011;40578;53.178;5.846;2022-09-12T08:31:36;57.03;;;40.28;;
54679;SDS011;40578;53.178;5.846;2022-09-12T08:34:02;58.40;;;41.07;;
54679;SDS011;40578;53.178;5.846;2022-09-12T08:36:29;58.22;;;41.50;;
54679;SDS011;40578;53.178;5.846;2022-09-12T08:38:56;60.67;;;40.45;;
54679;SDS011;40578;53.178;5.846;2022-09-12T08:41:27;56.25;;;39.58;;
54679;SDS011;40578;53.178;5.846;2022-09-12T08:44:12;57.45;;;41.22;;
54679;SDS011;40578;53.178;5.846;2022-09-12T08:46:50;58.45;;;41.58;;
54679;SDS011;40578;53.178;5.846;2022-09-12T08:51:52;61.33;;;43.83;;
54679;SDS011;40578;53.178;5.846;2022-09-12T08:54:22;62.17;;;44.03;;
54679;SDS011;40578;53.178;5.846;2022-09-12T08:56:51;60.08;;;43.67;;
54679;SDS011;40578;53.178;5.846;2022-09-12T08:59:22;63.58;;;44.38;;
54679;SDS011;40578;53.178;5.846;2022-09-12T09:01:49;62.53;;;43.65;;
54679;SDS011;40578;53.178;5.846;2022-09-12T09:04:36;65.13;;;44.03;;
54679;SDS011;40578;53.178;5.846;2022-09-12T09:07:21;64.88;;;41.60;;
54679;SDS011;40578;53.178;5.846;2022-09-12T09:16:13;57.03;;;39.70;;
54679;SDS011;40578;53.178;5.846;2022-09-12T09:18:45;52.35;;;37.28;;
54679;SDS011;40578;53.178;5.846;2022-09-12T09:24:02;50.90;;;36.47;;
54679;SDS011;40578;53.178;5.846;2022-09-12T09:26:38;49.38;;;34.10;;
54679;SDS011;40578;53.178;5.846;2022-09-12T09:29:13;46.38;;;33.78;;
54679;SDS011;40578;53.178;5.846;2022-09-12T09:31:40;47.88;;;32.53;;
54679;SDS011;40578;53.178;5.846;2022-09-12T09:34:12;45.90;;;31.83;;
54679;SDS011;40578;53.178;5.846;2022-09-12T09:36:56;40.67;;;29.10;;
54679;SDS011;40578;53.178;5.846;2022-09-12T09:42:40;34.97;;;24.98;;
54679;SDS011;40578;53.178;5.846;2022-09-12T09:45:19;36.08;;;24.10;;
54679;SDS011;40578;53.178;5.846;2022-09-12T09:47:50;38.22;;;25.85;;
54679;SDS011;40578;53.178;5.846;2022-09-12T09:50:18;34.30;;;24.45;;
54679;SDS011;40578;53.178;5.846;2022-09-12T09:52:44;28.10;;;21.00;;
54679;SDS011;40578;53.178;5.846;2022-09-12T09:55:13;31.00;;;22.27;;
54679;SDS011;40578;53.178;5.846;2022-09-12T09:57:45;23.55;;;17.40;;
54679;SDS011;40578;53.178;5.846;2022-09-12T10:00:19;23.08;;;16.52;;
54679;SDS011;40578;53.178;5.846;2022-09-12T10:03:05;24.52;;;16.95;;
54679;SDS011;40578;53.178;5.846;2022-09-12T10:05:52;24.70;;;17.55;;
54679;SDS011;40578;53.178;5.846;2022-09-12T10:08:25;22.63;;;17.08;;
54679;SDS011;40578;53.178;5.846;2022-09-12T10:10:54;27.73;;;19.70;;
54679;SDS011;40578;53.178;5.846;2022-09-12T10:13:32;27.05;;;19.70;;
54679;SDS011;40578;53.178;5.846;2022-09-12T10:15:59;25.40;;;18.63;;
54679;SDS011;40578;53.178;5.846;2022-09-12T10:18:37;29.10;;;20.13;;
54679;SDS011;40578;53.178;5.846;2022-09-12T10:21:18;26.42;;;20.08;;
54679;SDS011;40578;53.178;5.846;2022-09-12T10:24:20;22.80;;;17.30;;
54679;SDS011;40578;53.178;5.846;2022-09-12T10:29:38;27.00;;;18.30;;
54679;SDS011;40578;53.178;5.846;2022-09-12T10:32:41;23.27;;;17.38;;
54679;SDS011;40578;53.178;5.846;2022-09-12T10:35:16;23.20;;;17.25;;
54679;SDS011;40578;53.178;5.846;2022-09-12T10:37:50;23.13;;;17.90;;
54679;SDS011;40578;53.178;5.846;2022-09-12T10:42:51;24.37;;;17.47;;
54679;SDS011;40578;53.178;5.846;2022-09-12T10:45:21;23.27;;;17.23;;
54679;SDS011;40578;53.178;5.846;2022-09-12T10:47:55;22.08;;;18.30;;
54679;SDS011;40578;53.178;5.846;2022-09-12T10:50:38;22.98;;;15.20;;
54679;SDS011;40578;53.178;5.846;2022-09-12T10:53:15;21.23;;;15.02;;
54679;SDS011;40578;53.178;5.846;2022-09-12T10:55:57;19.67;;;14.00;;
54679;SDS011;40578;53.178;5.846;2022-09-12T11:10:01;16.95;;;10.48;;
54679;SDS011;40578;53.178;5.846;2022-09-12T11:12:36;12.98;;;9.65;;
54679;SDS011;40578;53.178;5.846;2022-09-12T11:17:47;11.15;;;9.48;;
54679;SDS011;40578;53.178;5.846;2022-09-12T11:34:09;12.15;;;9.15;;
54679;SDS011;40578;53.178;5.846;2022-09-12T11:37:01;14.25;;;9.88;;
54679;SDS011;40578;53.178;5.846;2022-09-12T11:39:37;13.98;;;9.80;;
54679;SDS011;40578;53.178;5.846;2022-09-12T11:42:04;10.52;;;8.57;;
54679;SDS011;40578;53.178;5.846;2022-09-12T11:44:38;11.02;;;8.85;;
54679;SDS011;40578;53.178;5.846;2022-09-12T11:49:52;9.85;;;7.95;;
54679;SDS011;40578;53.178;5.846;2022-09-12T12:00:19;13.60;;;8.93;;
54679;SDS011;40578;53.178;5.846;2022-09-12T12:02:54;10.00;;;7.55;;
54679;SDS011;40578;53.178;5.846;2022-09-12T12:08:03;8.23;;;6.45;;
54679;SDS011;40578;53.178;5.846;2022-09-12T12:10:37;9.43;;;6.68;;
54679;SDS011;40578;53.178;5.846;2022-09-12T12:13:16;8.90;;;6.68;;
54679;SDS011;40578;53.178;5.846;2022-09-12T12:15:47;9.23;;;6.22;;
54679;SDS011;40578;53.178;5.846;2022-09-12T12:18:26;6.70;;;5.95;;
54679;SDS011;40578;53.178;5.846;2022-09-12T12:20:54;11.02;;;7.60;;
54679;SDS011;40578;53.178;5.846;2022-09-12T12:23:31;8.30;;;6.72;;
54679;SDS011;40578;53.178;5.846;2022-09-12T12:25:59;10.98;;;7.30;;
54679;SDS011;40578;53.178;5.846;2022-09-12T12:31:07;8.80;;;7.40;;
54679;SDS011;40578;53.178;5.846;2022-09-12T12:36:04;13.02;;;8.80;;
54679;SDS011;40578;53.178;5.846;2022-09-12T12:38:52;10.27;;;9.10;;
54679;SDS011;40578;53.178;5.846;2022-09-12T12:43:43;8.37;;;7.33;;
54679;SDS011;40578;53.178;5.846;2022-09-12T12:46:14;10.98;;;8.63;;
54679;SDS011;40578;53.178;5.846;2022-09-12T12:53:50;8.90;;;7.07;;
54679;SDS011;40578;53.178;5.846;2022-09-12T12:56:27;12.77;;;8.07;;
54679;SDS011;40578;53.178;5.846;2022-09-12T12:59:10;10.90;;;8.27;;
54679;SDS011;40578;53.178;5.846;2022-09-12T13:01:46;9.45;;;7.68;;
54679;SDS011;40578;53.178;5.846;2022-09-12T13:04:19;9.75;;;8.10;;
54679;SDS011;40578;53.178;5.846;2022-09-12T13:06:59;10.20;;;7.70;;
54679;SDS011;40578;53.178;5.846;2022-09-12T13:12:11;9.15;;;7.35;;
54679;SDS011;40578;53.178;5.846;2022-09-12T13:14:59;10.18;;;6.95;;
54679;SDS011;40578;53.178;5.846;2022-09-12T13:19:53;10.33;;;8.47;;
54679;SDS011;40578;53.178;5.846;2022-09-12T13:22:40;9.50;;;7.10;;
54679;SDS011;40578;53.178;5.846;2022-09-12T13:25:18;9.15;;;6.90;;
54679;SDS011;40578;53.178;5.846;2022-09-12T13:28:06;10.82;;;7.25;;
54679;SDS011;40578;53.178;5.846;2022-09-12T13:30:41;8.32;;;6.80;;
54679;SDS011;40578;53.178;5.846;2022-09-12T13:33:46;8.75;;;7.28;;
54679;SDS011;40578;53.178;5.846;2022-09-12T13:41:19;11.05;;;7.60;;
54679;SDS011;40578;53.178;5.846;2022-09-12T13:44:08;12.13;;;8.10;;
54679;SDS011;40578;53.178;5.846;2022-09-12T13:46:38;9.95;;;8.45;;
54679;SDS011;40578;53.178;5.846;2022-09-12T13:49:16;12.35;;;9.70;;
54679;SDS011;40578;53.178;5.846;2022-09-12T13:51:52;11.77;;;9.75;;
54679;SDS011;40578;53.178;5.846;2022-09-12T13:54:25;12.55;;;10.02;;
54679;SDS011;40578;53.178;5.846;2022-09-12T13:56:51;14.02;;;11.40;;
54679;SDS011;40578;53.178;5.846;2022-09-12T13:59:17;14.15;;;11.35;;
54679;SDS011;40578;53.178;5.846;2022-09-12T14:01:43;14.53;;;10.93;;
54679;SDS011;40578;53.178;5.846;2022-09-12T14:04:20;13.52;;;11.48;;
54679;SDS011;40578;53.178;5.846;2022-09-12T14:07:11;14.18;;;11.52;;
54679;SDS011;40578;53.178;5.846;2022-09-12T14:09:38;14.38;;;11.70;;
54679;SDS011;40578;53.178;5.846;2022-09-12T14:14:56;14.15;;;11.27;;
54679;SDS011;40578;53.178;5.846;2022-09-12T14:17:23;14.90;;;11.95;;
54679;SDS011;40578;53.178;5.846;2022-09-12T14:19:53;14.23;;;11.65;;
54679;SDS011;40578;53.178;5.846;2022-09-12T14:22:23;13.32;;;10.90;;
54679;SDS011;40578;53.178;5.846;2022-09-12T14:24:50;14.55;;;10.30;;
54679;SDS011;40578;53.178;5.846;2022-09-12T14:27:17;15.18;;;11.18;;
54679;SDS011;40578;53.178;5.846;2022-09-12T14:29:54;13.07;;;10.65;;
54679;SDS011;40578;53.178;5.846;2022-09-12T14:32:31;12.48;;;10.50;;
54679;SDS011;40578;53.178;5.846;2022-09-12T14:35:30;14.55;;;10.43;;
54679;SDS011;40578;53.178;5.846;2022-09-12T14:37:49;13.70;;;9.98;;
54679;SDS011;40578;53.178;5.846;2022-09-12T14:40:19;11.88;;;9.38;;
54679;SDS011;40578;53.178;5.846;2022-09-12T14:42:49;11.05;;;9.38;;
54679;SDS011;40578;53.178;5.846;2022-09-12T14:45:26;12.98;;;10.32;;
54679;SDS011;40578;53.178;5.846;2022-09-12T14:47:54;11.07;;;9.40;;
54679;SDS011;40578;53.178;5.846;2022-09-12T14:50:24;10.82;;;8.93;;
54679;SDS011;40578;53.178;5.846;2022-09-12T14:53:03;10.90;;;9.68;;
54679;SDS011;40578;53.178;5.846;2022-09-12T14:55:29;13.88;;;10.38;;
54679;SDS011;40578;53.178;5.846;2022-09-12T15:03:30;11.45;;;9.02;;
54679;SDS011;40578;53.178;5.846;2022-09-12T15:06:01;11.77;;;9.40;;
54679;SDS011;40578;53.178;5.846;2022-09-12T15:08:29;12.38;;;8.68;;
54679;SDS011;40578;53.178;5.846;2022-09-12T15:13:22;10.43;;;8.35;;
54679;SDS011;40578;53.178;5.846;2022-09-12T15:18:20;13.15;;;9.95;;
54679;SDS011;40578;53.178;5.846;2022-09-12T15:20:47;12.18;;;9.30;;
54679;SDS011;40578;53.178;5.846;2022-09-12T15:23:25;11.70;;;9.57;;
54679;SDS011;40578;53.178;5.846;2022-09-12T15:25:55;11.75;;;9.30;;
54679;SDS011;40578;53.178;5.846;2022-09-12T15:28:21;11.83;;;9.30;;
54679;SDS011;40578;53.178;5.846;2022-09-12T15:30:48;12.93;;;9.07;;
54679;SDS011;40578;53.178;5.846;2022-09-12T15:33:17;10.55;;;8.77;;
54679;SDS011;40578;53.178;5.846;2022-09-12T15:35:45;11.85;;;9.48;;
54679;SDS011;40578;53.178;5.846;2022-09-12T15:38:10;12.70;;;9.88;;
54679;SDS011;40578;53.178;5.846;2022-09-12T15:40:36;11.45;;;9.75;;
54679;SDS011;40578;53.178;5.846;2022-09-12T15:43:02;12.40;;;9.10;;
54679;SDS011;40578;53.178;5.846;2022-09-12T15:45:29;9.68;;;8.68;;
54679;SDS011;40578;53.178;5.846;2022-09-12T15:47:55;11.60;;;9.15;;
54679;SDS011;40578;53.178;5.846;2022-09-12T15:50:22;10.77;;;9.68;;
54679;SDS011;40578;53.178;5.846;2022-09-12T15:52:48;10.68;;;9.57;;
54679;SDS011;40578;53.178;5.846;2022-09-12T15:55:15;11.40;;;10.20;;
54679;SDS011;40578;53.178;5.846;2022-09-12T15:57:42;12.05;;;10.25;;
54679;SDS011;40578;53.178;5.846;2022-09-12T16:00:07;13.25;;;9.82;;
54679;SDS011;40578;53.178;5.846;2022-09-12T16:04:59;12.25;;;9.82;;
54679;SDS011;40578;53.178;5.846;2022-09-12T16:07:25;11.87;;;9.97;;
54679;SDS011;40578;53.178;5.846;2022-09-12T16:09:51;11.77;;;8.93;;
54679;SDS011;40578;53.178;5.846;2022-09-12T16:12:16;12.87;;;9.67;;
54679;SDS011;40578;53.178;5.846;2022-09-12T16:14:42;12.53;;;9.73;;
54679;SDS011;40578;53.178;5.846;2022-09-12T16:17:09;13.18;;;10.48;;
54679;SDS011;40578;53.178;5.846;2022-09-12T16:19:34;11.68;;;9.40;;
54679;SDS011;40578;53.178;5.846;2022-09-12T16:22:00;13.10;;;9.70;;
54679;SDS011;40578;53.178;5.846;2022-09-12T16:24:27;12.27;;;10.07;;
54679;SDS011;40578;53.178;5.846;2022-09-12T16:26:55;10.57;;;9.43;;
54679;SDS011;40578;53.178;5.846;2022-09-12T16:29:21;12.77;;;9.03;;
54679;SDS011;40578;53.178;5.846;2022-09-12T16:31:46;13.23;;;9.17;;
54679;SDS011;40578;53.178;5.846;2022-09-12T16:34:12;12.10;;;9.40;;
54679;SDS011;40578;53.178;5.846;2022-09-12T16:36:37;10.80;;;9.10;;
54679;SDS011;40578;53.178;5.846;2022-09-12T16:39:03;11.23;;;8.37;;
54679;SDS011;40578;53.178;5.846;2022-09-12T16:41:29;10.00;;;8.82;;
54679;SDS011;40578;53.178;5.846;2022-09-12T16:43:55;12.20;;;9.60;;
54679;SDS011;40578;53.178;5.846;2022-09-12T16:46:22;9.70;;;8.57;;
54679;SDS011;40578;53.178;5.846;2022-09-12T16:48:50;10.80;;;9.05;;
54679;SDS011;40578;53.178;5.846;2022-09-12T16:51:18;10.15;;;9.00;;
54679;SDS011;40578;53.178;5.846;2022-09-12T16:53:45;12.40;;;10.05;;
54679;SDS011;40578;53.178;5.846;2022-09-12T16:56:12;11.25;;;9.85;;
54679;SDS011;40578;53.178;5.846;2022-09-12T16:58:38;10.75;;;9.65;;
54679;SDS011;40578;53.178;5.846;2022-09-12T17:03:35;10.55;;;9.43;;
54679;SDS011;40578;53.178;5.846;2022-09-12T17:06:02;13.02;;;10.20;;
54679;SDS011;40578;53.178;5.846;2022-09-12T17:08:31;12.70;;;10.60;;
54679;SDS011;40578;53.178;5.846;2022-09-12T17:11:02;10.30;;;9.25;;
54679;SDS011;40578;53.178;5.846;2022-09-12T17:13:32;11.48;;;9.07;;
54679;SDS011;40578;53.178;5.846;2022-09-12T17:15:58;10.57;;;8.97;;
54679;SDS011;40578;53.178;5.846;2022-09-12T17:18:24;13.07;;;9.35;;
54679;SDS011;40578;53.178;5.846;2022-09-12T17:20:50;11.60;;;9.05;;
54679;SDS011;40578;53.178;5.846;2022-09-12T17:23:16;12.27;;;10.00;;